Marshallville, Georgia
Current Conditions -  °F | °C
As of 1:55 PM on Tuesday 27 Jan 2015 (Local Time) from KPXE Reporting Station
Scattered Clouds Scattered Clouds  
Wind Chill: 56°   Ceiling: Unl
Heat Index: 56°   Visibility: 10mi
Dew Point: 32°   Wind: 13mph
Humidity: 40%   Direction: 360°N
Pressure: 29.94"   Gusts: 22mph
Location:  32.46°N, 83.94°W
Report Text: KPXE 271855Z AUTO 36011G19KT 10SM SCT050 SCT075 13/00 A2994 RMK AO2 T01340000
Loading
Personal Weather Stations






























Interactive Weather Map New forecast layout! Learn more

10-Day Weather Forecast

Advertisements
Track Severe Weather on mobile